sensor_id;sensor_type;location;lat;lon;timestamp;pressure;altitude;pressure_sealevel;temperature;humidity
75409;BME280;63979;55.644;37.734;2024-02-21T00:01:35;101157.53;;;-7.33;68.61
75409;BME280;63979;55.644;37.734;2024-02-21T00:06:36;101150.00;;;-7.24;68.00
75409;BME280;63979;55.644;37.734;2024-02-21T00:11:37;101144.13;;;-7.16;67.95
75409;BME280;63979;55.644;37.734;2024-02-21T00:16:38;101109.53;;;-7.17;67.73
75409;BME280;63979;55.644;37.734;2024-02-21T00:21:38;101131.75;;;-6.92;67.19
75409;BME280;63979;55.644;37.734;2024-02-21T00:26:39;101105.59;;;-7.00;67.01
75409;BME280;63979;55.644;37.734;2024-02-21T00:31:40;101139.84;;;-6.78;67.04
75409;BME280;63979;55.644;37.734;2024-02-21T00:36:41;101133.97;;;-6.70;66.83
75409;BME280;63979;55.644;37.734;2024-02-21T00:41:42;101129.75;;;-6.65;66.19
75409;BME280;63979;55.644;37.734;2024-02-21T00:46:42;101120.34;;;-6.60;66.71
75409;BME280;63979;55.644;37.734;2024-02-21T00:51:43;101107.34;;;-6.60;66.07
75409;BME280;63979;55.644;37.734;2024-02-21T00:56:44;101113.84;;;-6.39;66.25
75409;BME280;63979;55.644;37.734;2024-02-21T01:01:45;101105.16;;;-6.41;66.06
75409;BME280;63979;55.644;37.734;2024-02-21T01:06:46;101097.47;;;-6.35;65.91
75409;BME280;63979;55.644;37.734;2024-02-21T01:11:47;101077.53;;;-6.38;66.04
75409;BME280;63979;55.644;37.734;2024-02-21T01:16:48;101080.22;;;-6.33;66.02
75409;BME280;63979;55.644;37.734;2024-02-21T01:21:49;101081.38;;;-6.19;66.41
75409;BME280;63979;55.644;37.734;2024-02-21T01:26:49;101083.00;;;-6.24;65.94
75409;BME280;63979;55.644;37.734;2024-02-21T01:31:50;101052.38;;;-6.40;65.83
75409;BME280;63979;55.644;37.734;2024-02-21T01:36:51;101073.59;;;-6.19;66.02
75409;BME280;63979;55.644;37.734;2024-02-21T01:41:52;101072.81;;;-6.13;65.66
75409;BME280;63979;55.644;37.734;2024-02-21T01:46:53;101065.00;;;-6.15;66.17
75409;BME280;63979;55.644;37.734;2024-02-21T01:51:54;101049.34;;;-6.18;66.38
75409;BME280;63979;55.644;37.734;2024-02-21T01:56:55;101045.13;;;-6.11;66.34
75409;BME280;63979;55.644;37.734;2024-02-21T02:01:56;101042.91;;;-5.90;65.88
75409;BME280;63979;55.644;37.734;2024-02-21T02:07:00;101040.28;;;-5.91;65.49
75409;BME280;63979;55.644;37.734;2024-02-21T02:12:03;101044.81;;;-5.80;66.09
75409;BME280;63979;55.644;37.734;2024-02-21T02:17:05;101044.88;;;-5.75;65.75
75409;BME280;63979;55.644;37.734;2024-02-21T02:22:15;101037.84;;;-5.81;66.18
75409;BME280;63979;55.644;37.734;2024-02-21T02:27:18;101041.94;;;-5.95;66.59
75409;BME280;63979;55.644;37.734;2024-02-21T02:32:19;101044.03;;;-5.74;66.32
75409;BME280;63979;55.644;37.734;2024-02-21T02:37:20;101041.34;;;-5.80;66.18
75409;BME280;63979;55.644;37.734;2024-02-21T02:42:21;101045.00;;;-5.68;66.47
75409;BME280;63979;55.644;37.734;2024-02-21T02:47:22;101042.22;;;-5.80;66.67
75409;BME280;63979;55.644;37.734;2024-02-21T02:52:23;101051.19;;;-5.59;66.06
75409;BME280;63979;55.644;37.734;2024-02-21T02:57:23;101045.09;;;-5.61;66.40
75409;BME280;63979;55.644;37.734;2024-02-21T03:02:24;101014.41;;;-5.84;66.43
75409;BME280;63979;55.644;37.734;2024-02-21T03:07:25;101009.34;;;-5.76;66.18
75409;BME280;63979;55.644;37.734;2024-02-21T03:12:26;101040.72;;;-5.64;66.54
75409;BME280;63979;55.644;37.734;2024-02-21T03:17:28;101030.53;;;-5.53;66.50
75409;BME280;63979;55.644;37.734;2024-02-21T03:22:29;101019.13;;;-5.60;66.65
75409;BME280;63979;55.644;37.734;2024-02-21T03:27:30;101029.72;;;-5.49;66.45
75409;BME280;63979;55.644;37.734;2024-02-21T03:32:31;101024.44;;;-5.54;66.90
75409;BME280;63979;55.644;37.734;2024-02-21T03:37:32;101033.22;;;-5.46;67.07
75409;BME280;63979;55.644;37.734;2024-02-21T03:42:33;101020.25;;;-5.44;67.34
75409;BME280;63979;55.644;37.734;2024-02-21T03:47:34;101021.91;;;-5.49;67.27
75409;BME280;63979;55.644;37.734;2024-02-21T03:52:35;101019.44;;;-5.40;67.20
75409;BME280;63979;55.644;37.734;2024-02-21T03:57:35;101030.91;;;-5.27;67.16
75409;BME280;63979;55.644;37.734;2024-02-21T04:02:36;101026.53;;;-5.28;66.87
75409;BME280;63979;55.644;37.734;2024-02-21T04:07:38;101026.47;;;-5.35;66.80
75409;BME280;63979;55.644;37.734;2024-02-21T04:12:39;101029.16;;;-5.27;67.17
75409;BME280;63979;55.644;37.734;2024-02-21T04:17:40;101025.78;;;-5.21;66.94
75409;BME280;63979;55.644;37.734;2024-02-21T04:22:43;101041.53;;;-5.14;66.91
75409;BME280;63979;55.644;37.734;2024-02-21T04:27:44;100990.78;;;-5.43;67.12
75409;BME280;63979;55.644;37.734;2024-02-21T04:32:45;101032.94;;;-5.07;67.10
75409;BME280;63979;55.644;37.734;2024-02-21T04:37:46;101031.16;;;-5.11;67.10
75409;BME280;63979;55.644;37.734;2024-02-21T04:42:47;101030.31;;;-5.08;67.16
75409;BME280;63979;55.644;37.734;2024-02-21T04:47:47;101034.00;;;-4.92;66.79
75409;BME280;63979;55.644;37.734;2024-02-21T04:52:48;101031.47;;;-4.86;67.02
75409;BME280;63979;55.644;37.734;2024-02-21T04:57:49;100996.41;;;-5.14;66.79
75409;BME280;63979;55.644;37.734;2024-02-21T05:02:50;101032.41;;;-4.83;67.58
75409;BME280;63979;55.644;37.734;2024-02-21T05:07:51;101031.69;;;-4.73;66.69
75409;BME280;63979;55.644;37.734;2024-02-21T05:12:52;101027.31;;;-4.74;66.76
75409;BME280;63979;55.644;37.734;2024-02-21T05:17:54;101030.56;;;-4.90;67.38
75409;BME280;63979;55.644;37.734;2024-02-21T05:22:55;101031.81;;;-4.62;66.40
75409;BME280;63979;55.644;37.734;2024-02-21T05:27:55;101035.34;;;-4.55;66.44
75409;BME280;63979;55.644;37.734;2024-02-21T05:33:05;101028.34;;;-4.59;67.26
75409;BME280;63979;55.644;37.734;2024-02-21T05:38:06;101031.84;;;-4.59;67.35
75409;BME280;63979;55.644;37.734;2024-02-21T05:43:12;101029.41;;;-4.45;66.48
75409;BME280;63979;55.644;37.734;2024-02-21T05:48:13;101030.53;;;-4.22;66.05
75409;BME280;63979;55.644;37.734;2024-02-21T05:53:14;101010.31;;;-4.44;65.92
75409;BME280;63979;55.644;37.734;2024-02-21T05:58:17;101027.97;;;-4.17;65.53
75409;BME280;63979;55.644;37.734;2024-02-21T06:03:18;101021.19;;;-4.03;65.15
75409;BME280;63979;55.644;37.734;2024-02-21T06:08:19;101028.22;;;-3.91;64.92
75409;BME280;63979;55.644;37.734;2024-02-21T06:13:23;101035.31;;;-3.81;64.72
75409;BME280;63979;55.644;37.734;2024-02-21T06:18:24;101034.34;;;-3.88;65.34
75409;BME280;63979;55.644;37.734;2024-02-21T06:23:25;101030.22;;;-3.66;64.44
75409;BME280;63979;55.644;37.734;2024-02-21T06:28:26;101025.97;;;-3.50;63.72
75409;BME280;63979;55.644;37.734;2024-02-21T06:33:28;101019.91;;;-3.48;63.80
75409;BME280;63979;55.644;37.734;2024-02-21T06:38:28;101028.75;;;-3.30;63.16
75409;BME280;63979;55.644;37.734;2024-02-21T06:43:29;101042.59;;;-3.40;63.22
75409;BME280;63979;55.644;37.734;2024-02-21T06:48:30;101030.53;;;-3.25;62.88
75409;BME280;63979;55.644;37.734;2024-02-21T06:53:31;101018.56;;;-2.83;61.48
75409;BME280;63979;55.644;37.734;2024-02-21T06:58:32;101027.34;;;-2.76;61.78
75409;BME280;63979;55.644;37.734;2024-02-21T07:03:33;101020.28;;;-2.90;61.46
75409;BME280;63979;55.644;37.734;2024-02-21T07:08:34;101026.56;;;-2.54;60.46
75409;BME280;63979;55.644;37.734;2024-02-21T07:13:35;101011.78;;;-2.44;60.11
75409;BME280;63979;55.644;37.734;2024-02-21T07:18:36;101017.94;;;-2.23;59.47
75409;BME280;63979;55.644;37.734;2024-02-21T07:23:37;101017.94;;;-2.21;59.33
75409;BME280;63979;55.644;37.734;2024-02-21T07:28:41;101007.56;;;-1.89;58.50
75409;BME280;63979;55.644;37.734;2024-02-21T07:33:43;101007.59;;;-1.63;57.00
75409;BME280;63979;55.644;37.734;2024-02-21T07:38:44;101015.25;;;-0.70;54.98
75409;BME280;63979;55.644;37.734;2024-02-21T07:43:45;101005.94;;;0.38;51.60
75409;BME280;63979;55.644;37.734;2024-02-21T07:48:46;101010.13;;;4.34;42.31
75409;BME280;63979;55.644;37.734;2024-02-21T07:53:47;100999.41;;;7.32;35.70
75409;BME280;63979;55.644;37.734;2024-02-21T07:58:49;100984.50;;;7.98;33.00
75409;BME280;63979;55.644;37.734;2024-02-21T08:03:50;100999.31;;;9.31;32.09
75409;BME280;63979;55.644;37.734;2024-02-21T08:08:51;101006.50;;;10.08;29.60
75409;BME280;63979;55.644;37.734;2024-02-21T08:13:52;100976.41;;;11.28;27.50
75409;BME280;63979;55.644;37.734;2024-02-21T08:18:53;100993.22;;;11.96;26.78
75409;BME280;63979;55.644;37.734;2024-02-21T08:23:54;100987.78;;;12.13;26.27
75409;BME280;63979;55.644;37.734;2024-02-21T08:28:56;100992.88;;;13.82;23.93
75409;BME280;63979;55.644;37.734;2024-02-21T08:34:00;100982.56;;;14.17;23.23
75409;BME280;63979;55.644;37.734;2024-02-21T08:39:05;100989.84;;;14.29;23.60
75409;BME280;63979;55.644;37.734;2024-02-21T08:44:06;100996.09;;;11.43;26.43
75409;BME280;63979;55.644;37.734;2024-02-21T08:49:10;100995.06;;;13.03;23.69
75409;BME280;63979;55.644;37.734;2024-02-21T08:54:11;100992.31;;;10.97;27.12
75409;BME280;63979;55.644;37.734;2024-02-21T08:59:12;100996.63;;;9.52;28.56
75409;BME280;63979;55.644;37.734;2024-02-21T09:04:12;100997.47;;;6.06;34.69
75409;BME280;63979;55.644;37.734;2024-02-21T09:09:13;100991.16;;;5.20;36.65
75409;BME280;63979;55.644;37.734;2024-02-21T09:14:14;100994.56;;;3.41;40.27
75409;BME280;63979;55.644;37.734;2024-02-21T09:19:15;100983.59;;;3.61;40.99
75409;BME280;63979;55.644;37.734;2024-02-21T09:24:17;100971.22;;;2.75;42.49
75409;BME280;63979;55.644;37.734;2024-02-21T09:29:18;100984.19;;;1.80;45.43
75409;BME280;63979;55.644;37.734;2024-02-21T09:34:19;100972.72;;;1.84;45.97
75409;BME280;63979;55.644;37.734;2024-02-21T09:39:20;100962.63;;;2.64;44.06
75409;BME280;63979;55.644;37.734;2024-02-21T09:44:21;100959.88;;;2.70;44.54
75409;BME280;63979;55.644;37.734;2024-02-21T09:49:35;100966.25;;;1.45;46.61
75409;BME280;63979;55.644;37.734;2024-02-21T09:54:39;100955.63;;;1.52;47.14
75409;BME280;63979;55.644;37.734;2024-02-21T09:59:42;100949.66;;;1.37;47.31
75409;BME280;63979;55.644;37.734;2024-02-21T10:04:43;100929.09;;;0.99;48.54
75409;BME280;63979;55.644;37.734;2024-02-21T10:09:44;100946.94;;;0.69;49.44
75409;BME280;63979;55.644;37.734;2024-02-21T10:14:48;100940.13;;;0.53;50.31
75409;BME280;63979;55.644;37.734;2024-02-21T10:19:49;100920.72;;;0.65;49.50
75409;BME280;63979;55.644;37.734;2024-02-21T10:24:51;100944.09;;;0.90;49.35
75409;BME280;63979;55.644;37.734;2024-02-21T10:29:52;100939.72;;;0.89;49.06
75409;BME280;63979;55.644;37.734;2024-02-21T10:35:01;100937.19;;;0.83;49.18
75409;BME280;63979;55.644;37.734;2024-02-21T10:40:03;100940.84;;;0.67;50.01
75409;BME280;63979;55.644;37.734;2024-02-21T10:45:07;100871.50;;;-0.06;51.29
75409;BME280;63979;55.644;37.734;2024-02-21T10:50:12;100923.13;;;-0.06;51.84
75409;BME280;63979;55.644;37.734;2024-02-21T10:55:29;100953.69;;;0.01;51.65
75409;BME280;63979;55.644;37.734;2024-02-21T11:00:35;100917.88;;;-0.06;51.61
75409;BME280;63979;55.644;37.734;2024-02-21T11:05:37;100933.38;;;0.23;51.64
75409;BME280;63979;55.644;37.734;2024-02-21T11:10:38;100934.31;;;0.16;51.47
75409;BME280;63979;55.644;37.734;2024-02-21T11:15:41;100943.03;;;0.19;51.43
75409;BME280;63979;55.644;37.734;2024-02-21T11:20:49;100920.69;;;-0.30;52.56
75409;BME280;63979;55.644;37.734;2024-02-21T11:25:51;100935.59;;;-0.43;53.31
75409;BME280;63979;55.644;37.734;2024-02-21T11:30:52;100919.06;;;-0.53;53.37
75409;BME280;63979;55.644;37.734;2024-02-21T11:35:55;100906.75;;;-0.42;54.25
75409;BME280;63979;55.644;37.734;2024-02-21T11:40:56;100913.91;;;-0.65;54.05
75409;BME280;63979;55.644;37.734;2024-02-21T11:46:00;100914.78;;;-0.68;55.25
75409;BME280;63979;55.644;37.734;2024-02-21T11:51:02;100900.81;;;-0.74;55.26
75409;BME280;63979;55.644;37.734;2024-02-21T11:56:04;100904.38;;;-0.83;55.57
75409;BME280;63979;55.644;37.734;2024-02-21T12:01:05;100898.34;;;-1.09;55.99
75409;BME280;63979;55.644;37.734;2024-02-21T12:06:07;100908.81;;;-0.99;56.70
75409;BME280;63979;55.644;37.734;2024-02-21T12:11:22;100910.59;;;-1.10;57.14
75409;BME280;63979;55.644;37.734;2024-02-21T12:16:23;100894.84;;;-1.07;56.78
75409;BME280;63979;55.644;37.734;2024-02-21T12:21:29;100902.75;;;-1.19;57.09
75409;BME280;63979;55.644;37.734;2024-02-21T12:26:30;100897.53;;;-1.20;57.49
75409;BME280;63979;55.644;37.734;2024-02-21T12:31:32;100897.59;;;-1.34;58.18
75409;BME280;63979;55.644;37.734;2024-02-21T12:36:33;100884.50;;;-1.34;57.79
75409;BME280;63979;55.644;37.734;2024-02-21T12:41:35;100882.75;;;-1.41;57.72
75409;BME280;63979;55.644;37.734;2024-02-21T12:46:39;100875.78;;;-1.48;58.24
75409;BME280;63979;55.644;37.734;2024-02-21T12:51:43;100871.44;;;-1.48;58.84
75409;BME280;63979;55.644;37.734;2024-02-21T12:56:44;100867.13;;;-1.75;59.50
75409;BME280;63979;55.644;37.734;2024-02-21T13:01:45;100868.88;;;-1.77;59.48
75409;BME280;63979;55.644;37.734;2024-02-21T13:06:46;100855.81;;;-1.91;59.32
75409;BME280;63979;55.644;37.734;2024-02-21T13:11:47;100834.91;;;-2.09;59.88
75409;BME280;63979;55.644;37.734;2024-02-21T13:16:47;100865.41;;;-1.90;60.08
75409;BME280;63979;55.644;37.734;2024-02-21T13:21:48;100888.09;;;-2.02;60.42
75409;BME280;63979;55.644;37.734;2024-02-21T13:26:49;100844.50;;;-2.31;61.16
75409;BME280;63979;55.644;37.734;2024-02-21T13:31:51;100872.41;;;-2.30;60.97
75409;BME280;63979;55.644;37.734;2024-02-21T13:36:53;100875.88;;;-2.22;61.25
75409;BME280;63979;55.644;37.734;2024-02-21T13:41:56;100887.22;;;-2.16;61.22
75409;BME280;63979;55.644;37.734;2024-02-21T13:46:59;100878.50;;;-2.38;61.96
75409;BME280;63979;55.644;37.734;2024-02-21T13:52:01;100871.53;;;-2.29;61.82
75409;BME280;63979;55.644;37.734;2024-02-21T13:57:01;100876.75;;;-2.21;61.62
75409;BME280;63979;55.644;37.734;2024-02-21T14:02:04;100879.38;;;-2.21;61.56
75409;BME280;63979;55.644;37.734;2024-02-21T14:07:05;100869.78;;;-2.30;61.28
75409;BME280;63979;55.644;37.734;2024-02-21T14:12:06;100875.00;;;-2.36;61.88
75409;BME280;63979;55.644;37.734;2024-02-21T14:17:08;100888.06;;;-2.43;61.63
75409;BME280;63979;55.644;37.734;2024-02-21T14:22:09;100895.00;;;-2.53;61.63
75409;BME280;63979;55.644;37.734;2024-02-21T14:27:12;100880.22;;;-2.51;61.70
75409;BME280;63979;55.644;37.734;2024-02-21T14:32:13;100883.69;;;-2.47;61.81
75409;BME280;63979;55.644;37.734;2024-02-21T14:37:15;100891.53;;;-2.64;62.82
75409;BME280;63979;55.644;37.734;2024-02-21T14:42:16;100882.00;;;-2.32;62.49
75409;BME280;63979;55.644;37.734;2024-02-21T14:47:18;100891.53;;;-2.51;62.15
75409;BME280;63979;55.644;37.734;2024-02-21T14:52:19;100892.41;;;-2.45;62.70
75409;BME280;63979;55.644;37.734;2024-02-21T14:57:21;100899.34;;;-2.70;62.68
75409;BME280;63979;55.644;37.734;2024-02-21T15:02:22;100900.22;;;-2.74;63.73
75409;BME280;63979;55.644;37.734;2024-02-21T15:07:23;100899.28;;;-2.83;64.25
75409;BME280;63979;55.644;37.734;2024-02-21T15:12:26;100898.47;;;-2.77;64.00
75409;BME280;63979;55.644;37.734;2024-02-21T15:17:26;100895.84;;;-2.72;63.89
75409;BME280;63979;55.644;37.734;2024-02-21T15:22:27;100894.91;;;-2.90;64.01
75409;BME280;63979;55.644;37.734;2024-02-21T15:27:28;100892.31;;;-2.87;64.32
75409;BME280;63979;55.644;37.734;2024-02-21T15:32:30;100887.91;;;-3.03;65.43
75409;BME280;63979;55.644;37.734;2024-02-21T15:37:32;100894.91;;;-2.94;65.51
75409;BME280;63979;55.644;37.734;2024-02-21T15:42:34;100902.75;;;-2.97;65.63
75409;BME280;63979;55.644;37.734;2024-02-21T15:47:35;100895.78;;;-2.89;66.00
75409;BME280;63979;55.644;37.734;2024-02-21T15:52:37;100845.25;;;-3.11;66.56
75409;BME280;63979;55.644;37.734;2024-02-21T15:57:38;100885.34;;;-2.85;66.75
75409;BME280;63979;55.644;37.734;2024-02-21T16:03:00;100884.44;;;-3.05;66.75
75409;BME280;63979;55.644;37.734;2024-02-21T16:08:01;100892.19;;;-3.16;67.66
75409;BME280;63979;55.644;37.734;2024-02-21T16:13:02;100875.63;;;-3.25;68.16
75409;BME280;63979;55.644;37.734;2024-02-21T16:18:04;100879.16;;;-3.17;68.35
75409;BME280;63979;55.644;37.734;2024-02-21T16:23:09;100872.13;;;-3.30;68.32
75409;BME280;63979;55.644;37.734;2024-02-21T16:28:12;100872.19;;;-3.18;68.12
75409;BME280;63979;55.644;37.734;2024-02-21T16:33:14;100865.13;;;-3.43;69.22
75409;BME280;63979;55.644;37.734;2024-02-21T16:38:15;100858.22;;;-3.34;68.25
75409;BME280;63979;55.644;37.734;2024-02-21T16:43:16;100859.09;;;-3.30;68.85
75409;BME280;63979;55.644;37.734;2024-02-21T16:48:17;100846.91;;;-3.33;68.36
75409;BME280;63979;55.644;37.734;2024-02-21T16:53:20;100851.28;;;-3.18;67.64
75409;BME280;63979;55.644;37.734;2024-02-21T16:58:22;100844.34;;;-3.16;67.58
75409;BME280;63979;55.644;37.734;2024-02-21T17:03:24;100839.94;;;-3.29;67.51
75409;BME280;63979;55.644;37.734;2024-02-21T17:08:25;100867.81;;;-3.25;67.25
75409;BME280;63979;55.644;37.734;2024-02-21T17:13:26;100847.81;;;-3.17;67.40
75409;BME280;63979;55.644;37.734;2024-02-21T17:18:28;100853.00;;;-3.32;67.85
75409;BME280;63979;55.644;37.734;2024-02-21T17:23:29;100831.25;;;-3.31;67.34
75409;BME280;63979;55.644;37.734;2024-02-21T17:28:32;100851.22;;;-3.42;68.33
75409;BME280;63979;55.644;37.734;2024-02-21T17:33:33;100841.69;;;-3.30;68.00
75409;BME280;63979;55.644;37.734;2024-02-21T17:38:34;100842.56;;;-3.29;68.53
75409;BME280;63979;55.644;37.734;2024-02-21T17:43:35;100839.09;;;-3.22;67.38
75409;BME280;63979;55.644;37.734;2024-02-21T17:48:38;100848.69;;;-3.18;68.25
75409;BME280;63979;55.644;37.734;2024-02-21T17:54:00;100833.88;;;-3.24;68.21
75409;BME280;63979;55.644;37.734;2024-02-21T17:59:04;100835.56;;;-3.36;68.38
75409;BME280;63979;55.644;37.734;2024-02-21T18:04:05;100834.72;;;-3.29;69.03
75409;BME280;63979;55.644;37.734;2024-02-21T18:09:08;100786.75;;;-3.62;69.85
75409;BME280;63979;55.644;37.734;2024-02-21T18:14:09;100821.56;;;-3.51;69.06
75409;BME280;63979;55.644;37.734;2024-02-21T18:19:11;100817.28;;;-3.42;69.61
75409;BME280;63979;55.644;37.734;2024-02-21T18:24:14;100813.81;;;-3.41;69.57
75409;BME280;63979;55.644;37.734;2024-02-21T18:29:17;100823.38;;;-3.43;70.18
75409;BME280;63979;55.644;37.734;2024-02-21T18:34:20;100806.84;;;-3.39;70.54
75409;BME280;63979;55.644;37.734;2024-02-21T18:39:21;100776.28;;;-3.71;70.77
75409;BME280;63979;55.644;37.734;2024-02-21T18:44:24;100811.09;;;-3.63;71.09
75409;BME280;63979;55.644;37.734;2024-02-21T18:49:25;100799.81;;;-3.57;71.22
75409;BME280;63979;55.644;37.734;2024-02-21T18:54:26;100797.19;;;-3.57;71.39
75409;BME280;63979;55.644;37.734;2024-02-21T18:59:28;100798.94;;;-3.53;71.26
75409;BME280;63979;55.644;37.734;2024-02-21T19:04:29;100772.78;;;-3.76;71.10
75409;BME280;63979;55.644;37.734;2024-02-21T19:09:31;100799.84;;;-3.48;71.23
75409;BME280;63979;55.644;37.734;2024-02-21T19:14:32;100796.34;;;-3.55;71.79
75409;BME280;63979;55.644;37.734;2024-02-21T19:19:36;100797.22;;;-3.56;71.28
75409;BME280;63979;55.644;37.734;2024-02-21T19:24:37;100792.84;;;-3.58;71.44
75409;BME280;63979;55.644;37.734;2024-02-21T19:29:39;100793.75;;;-3.49;71.64
75409;BME280;63979;55.644;37.734;2024-02-21T19:34:40;100790.34;;;-3.40;71.14
75409;BME280;63979;55.644;37.734;2024-02-21T19:39:41;100776.34;;;-3.48;70.79
75409;BME280;63979;55.644;37.734;2024-02-21T19:44:42;100792.06;;;-3.43;70.72
75409;BME280;63979;55.644;37.734;2024-02-21T19:49:43;100778.09;;;-3.49;70.43
75409;BME280;63979;55.644;37.734;2024-02-21T19:54:48;100789.41;;;-3.51;70.70
75409;BME280;63979;55.644;37.734;2024-02-21T19:59:49;100788.56;;;-3.46;70.48
75409;BME280;63979;55.644;37.734;2024-02-21T20:04:51;100772.94;;;-3.38;70.42
75409;BME280;63979;55.644;37.734;2024-02-21T20:09:53;100765.97;;;-3.47;70.80
75409;BME280;63979;55.644;37.734;2024-02-21T20:14:54;100766.78;;;-3.48;71.00
75409;BME280;63979;55.644;37.734;2024-02-21T20:19:56;100772.94;;;-3.33;71.01
75409;BME280;63979;55.644;37.734;2024-02-21T20:24:57;100771.19;;;-3.40;70.41
75409;BME280;63979;55.644;37.734;2024-02-21T20:29:58;100758.16;;;-3.40;70.48
75409;BME280;63979;55.644;37.734;2024-02-21T20:34:59;100764.25;;;-3.29;70.55
75409;BME280;63979;55.644;37.734;2024-02-21T20:40:00;100749.44;;;-3.36;70.17
75409;BME280;63979;55.644;37.734;2024-02-21T20:45:01;100764.25;;;-3.29;70.48
75409;BME280;63979;55.644;37.734;2024-02-21T20:50:02;100754.69;;;-3.17;69.99
75409;BME280;63979;55.644;37.734;2024-02-21T20:55:04;100755.56;;;-3.30;70.65
75409;BME280;63979;55.644;37.734;2024-02-21T21:00:07;100742.50;;;-3.37;71.05
75409;BME280;63979;55.644;37.734;2024-02-21T21:05:08;100742.50;;;-3.21;70.91
75409;BME280;63979;55.644;37.734;2024-02-21T21:10:10;100748.59;;;-3.29;70.27
75409;BME280;63979;55.644;37.734;2024-02-21T21:15:13;100744.25;;;-3.26;70.81
75409;BME280;63979;55.644;37.734;2024-02-21T21:20:15;100752.06;;;-3.36;70.66
75409;BME280;63979;55.644;37.734;2024-02-21T21:25:17;100751.22;;;-3.26;71.08
75409;BME280;63979;55.644;37.734;2024-02-21T21:30:19;100746.88;;;-3.18;70.84
75409;BME280;63979;55.644;37.734;2024-02-21T21:35:22;100741.66;;;-3.18;70.05
75409;BME280;63979;55.644;37.734;2024-02-21T21:40:23;100739.91;;;-3.25;70.63
75409;BME280;63979;55.644;37.734;2024-02-21T21:45:27;100728.59;;;-3.26;70.81
75409;BME280;63979;55.644;37.734;2024-02-21T21:50:27;100726.84;;;-3.30;71.19
75409;BME280;63979;55.644;37.734;2024-02-21T21:55:28;100725.09;;;-3.23;70.94
75409;BME280;63979;55.644;37.734;2024-02-21T22:00:30;100731.19;;;-3.26;71.68
75409;BME280;63979;55.644;37.734;2024-02-21T22:05:31;100725.97;;;-3.30;71.76
75409;BME280;63979;55.644;37.734;2024-02-21T22:10:32;100725.09;;;-3.31;71.89
75409;BME280;63979;55.644;37.734;2024-02-21T22:15:33;100723.41;;;-3.12;71.41
75409;BME280;63979;55.644;37.734;2024-02-21T22:20:34;100727.72;;;-3.20;71.34
75409;BME280;63979;55.644;37.734;2024-02-21T22:25:37;100720.75;;;-3.14;71.61
75409;BME280;63979;55.644;37.734;2024-02-21T22:30:40;100713.84;;;-3.07;71.13
75409;BME280;63979;55.644;37.734;2024-02-21T22:35:41;100702.53;;;-3.09;71.42
75409;BME280;63979;55.644;37.734;2024-02-21T22:40:45;100666.81;;;-3.37;71.20
75409;BME280;63979;55.644;37.734;2024-02-21T22:45:45;100672.03;;;-3.27;71.80
75409;BME280;63979;55.644;37.734;2024-02-21T22:50:48;100706.88;;;-3.05;71.95
75409;BME280;63979;55.644;37.734;2024-02-21T22:55:49;100693.78;;;-3.16;72.20
75409;BME280;63979;55.644;37.734;2024-02-21T23:00:49;100694.69;;;-3.06;72.33
75409;BME280;63979;55.644;37.734;2024-02-21T23:05:50;100695.56;;;-3.01;72.40
75409;BME280;63979;55.644;37.734;2024-02-21T23:10:51;100692.06;;;-3.01;72.74
75409;BME280;63979;55.644;37.734;2024-02-21T23:15:52;100692.06;;;-3.00;72.09
75409;BME280;63979;55.644;37.734;2024-02-21T23:20:53;100649.41;;;-3.17;71.56
75409;BME280;63979;55.644;37.734;2024-02-21T23:25:54;100680.75;;;-3.08;72.61
75409;BME280;63979;55.644;37.734;2024-02-21T23:30:55;100681.63;;;-3.04;72.53
75409;BME280;63979;55.644;37.734;2024-02-21T23:35:56;100674.63;;;-3.22;73.11
75409;BME280;63979;55.644;37.734;2024-02-21T23:40:57;100678.16;;;-3.08;73.46
75409;BME280;63979;55.644;37.734;2024-02-21T23:45:58;100677.28;;;-2.99;73.39
75409;BME280;63979;55.644;37.734;2024-02-21T23:51:00;100676.41;;;-3.00;73.12
75409;BME280;63979;55.644;37.734;2024-02-21T23:56:01;100674.66;;;-2.98;73.32
